createdAt,value
2022-09-01T00:00:02.049Z,15.80
2022-09-01T00:02:32.299Z,15.76
2022-09-01T00:04:59.428Z,15.78
2022-09-01T00:07:30.029Z,15.85
2022-09-01T00:09:56.823Z,15.80
2022-09-01T00:12:25.711Z,15.89
2022-09-01T00:14:53.013Z,15.70
2022-09-01T00:17:19.774Z,15.55
2022-09-01T00:19:46.299Z,15.76
2022-09-01T00:22:12.878Z,15.82
2022-09-01T00:24:39.297Z,15.69
2022-09-01T00:27:05.877Z,15.70
2022-09-01T00:29:32.429Z,15.74
2022-09-01T00:31:59.404Z,15.69
2022-09-01T00:34:26.050Z,15.42
2022-09-01T00:36:53.387Z,15.50
2022-09-01T00:39:19.934Z,15.59
2022-09-01T00:41:47.819Z,15.50
2022-09-01T00:44:16.508Z,15.52
2022-09-01T00:46:50.993Z,15.48
2022-09-01T00:49:34.932Z,15.39
2022-09-01T00:52:08.019Z,15.28
2022-09-01T00:54:40.062Z,15.40
2022-09-01T00:57:08.860Z,15.38
2022-09-01T00:59:38.915Z,15.48
2022-09-01T01:02:05.954Z,15.40
2022-09-01T01:04:32.508Z,15.43
2022-09-01T01:07:03.097Z,15.48
2022-09-01T01:09:36.048Z,15.48
2022-09-01T01:12:05.597Z,15.34
2022-09-01T01:14:36.858Z,15.39
2022-09-01T01:17:03.506Z,15.20
2022-09-01T01:19:54.910Z,15.25
2022-09-01T01:23:02.372Z,15.22
2022-09-01T01:25:57.939Z,15.15
2022-09-01T01:28:30.961Z,15.23
2022-09-01T01:31:01.878Z,15.27
2022-09-01T01:33:40.666Z,15.27
2022-09-01T01:36:13.268Z,15.25
2022-09-01T01:38:43.193Z,15.33
2022-09-01T01:41:11.301Z,15.31
2022-09-01T01:43:38.800Z,15.25
2022-09-01T01:46:08.365Z,15.28
2022-09-01T01:48:40.525Z,15.20
2022-09-01T01:51:08.576Z,15.27
2022-09-01T01:53:35.466Z,14.98
2022-09-01T01:56:02.834Z,15.09
2022-09-01T01:58:33.513Z,15.04
2022-09-01T02:01:03.528Z,14.98
2022-09-01T02:03:38.514Z,15.11
2022-09-01T02:06:11.860Z,14.99
2022-09-01T02:08:40.703Z,15.09
2022-09-01T02:11:08.347Z,15.05
2022-09-01T02:13:35.223Z,15.10
2022-09-01T02:16:07.653Z,15.17
2022-09-01T02:18:37.633Z,15.12
2022-09-01T02:21:15.074Z,15.13
2022-09-01T02:23:45.578Z,15.14
2022-09-01T02:26:16.927Z,14.95
2022-09-01T02:28:50.918Z,15.15
2022-09-01T02:31:22.054Z,15.02
2022-09-01T02:33:48.644Z,15.12
2022-09-01T02:36:15.939Z,15.20
2022-09-01T02:38:45.907Z,15.19
2022-09-01T02:41:14.533Z,15.13
2022-09-01T02:43:46.211Z,15.15
2022-09-01T02:46:14.064Z,14.96
2022-09-01T02:48:45.900Z,15.03
2022-09-01T02:51:17.311Z,14.99
2022-09-01T02:53:46.957Z,14.99
2022-09-01T02:56:14.103Z,14.95
2022-09-01T02:58:46.435Z,14.90
2022-09-01T03:01:19.490Z,14.98
2022-09-01T03:03:47.809Z,14.91
2022-09-01T03:06:14.959Z,14.78
2022-09-01T03:08:41.457Z,14.75
2022-09-01T03:11:13.346Z,14.81
2022-09-01T03:13:41.925Z,14.80
2022-09-01T03:16:09.709Z,14.85
2022-09-01T03:18:37.156Z,14.85
2022-09-01T03:21:06.151Z,14.88
2022-09-01T03:23:34.083Z,14.79
2022-09-01T03:26:02.155Z,14.89
2022-09-01T03:28:29.790Z,14.72
2022-09-01T03:30:57.706Z,14.76
2022-09-01T03:33:27.473Z,14.78
2022-09-01T03:35:56.410Z,14.68
2022-09-01T03:38:24.578Z,14.75
2022-09-01T03:41:01.880Z,14.80
2022-09-01T03:43:35.877Z,14.77
2022-09-01T03:46:03.745Z,14.79
2022-09-01T03:48:32.026Z,14.67
2022-09-01T03:51:02.742Z,14.64
2022-09-01T03:53:34.185Z,14.74
2022-09-01T03:56:01.546Z,14.78
2022-09-01T03:58:28.818Z,14.70
2022-09-01T04:00:57.093Z,14.75
2022-09-01T04:03:29.028Z,14.76
2022-09-01T04:05:56.331Z,14.82
2022-09-01T04:08:27.473Z,14.74
2022-09-01T04:11:02.946Z,14.73
2022-09-01T04:13:36.597Z,14.69
2022-09-01T04:16:10.606Z,14.78
2022-09-01T04:18:40.130Z,14.80
2022-09-01T04:21:08.136Z,14.69
2022-09-01T04:23:37.127Z,14.75
2022-09-01T04:26:11.262Z,14.76
2022-09-01T04:28:40.925Z,14.80
2022-09-01T04:31:14.867Z,14.79
2022-09-01T04:33:42.133Z,14.76
2022-09-01T04:36:22.347Z,14.68
2022-09-01T04:38:54.436Z,14.72
2022-09-01T04:41:25.713Z,14.78
2022-09-01T04:43:57.040Z,14.72
2022-09-01T04:46:28.454Z,14.84
2022-09-01T04:48:57.628Z,14.91
2022-09-01T04:51:28.002Z,14.82
2022-09-01T04:53:57.496Z,14.72
2022-09-01T04:56:26.806Z,14.61
2022-09-01T04:59:13.049Z,14.81
2022-09-01T05:01:44.001Z,14.82
2022-09-01T05:04:22.532Z,14.77
2022-09-01T05:06:55.936Z,14.80
2022-09-01T05:09:25.176Z,14.85
2022-09-01T05:12:15.890Z,15.01
2022-09-01T05:14:48.495Z,15.06
2022-09-01T05:17:18.679Z,14.96
2022-09-01T05:19:48.366Z,15.07
2022-09-01T05:22:16.144Z,15.13
2022-09-01T05:24:46.852Z,15.16
2022-09-01T05:27:15.147Z,15.39
2022-09-01T05:29:46.863Z,15.31
2022-09-01T05:32:13.553Z,15.15
2022-09-01T05:34:42.443Z,15.23
2022-09-01T05:37:09.592Z,15.23
2022-09-01T05:39:38.183Z,15.26
2022-09-01T05:42:08.075Z,15.35
2022-09-01T05:44:44.010Z,15.48
2022-09-01T05:47:21.047Z,15.51
2022-09-01T05:49:50.309Z,15.46
2022-09-01T05:52:17.547Z,15.61
2022-09-01T05:54:45.992Z,15.69
2022-09-01T05:57:33.269Z,15.66
2022-09-01T05:59:59.580Z,15.82
2022-09-01T06:02:27.215Z,15.97
2022-09-01T06:04:56.890Z,16.06
2022-09-01T06:07:28.531Z,16.12
2022-09-01T06:09:56.977Z,16.09
2022-09-01T06:12:25.383Z,16.16
2022-09-01T06:14:54.455Z,16.17
2022-09-01T06:17:25.621Z,16.25
2022-09-01T06:19:57.827Z,16.36
2022-09-01T06:22:28.215Z,16.47
2022-09-01T06:25:02.263Z,16.32
2022-09-01T06:27:38.670Z,16.60
2022-09-01T06:30:14.867Z,16.60
2022-09-01T06:32:45.344Z,16.48
2022-09-01T06:35:12.318Z,16.53
2022-09-01T06:37:39.934Z,16.50
2022-09-01T06:40:10.905Z,16.57
2022-09-01T06:42:37.844Z,16.68
2022-09-01T06:45:10.252Z,16.88
2022-09-01T06:47:36.909Z,16.80
2022-09-01T06:50:08.506Z,16.71
2022-09-01T06:55:23.017Z,16.45
2022-09-01T06:58:07.171Z,16.52
2022-09-01T07:00:41.856Z,16.60
2022-09-01T07:03:14.147Z,16.84
2022-09-01T07:06:01.390Z,16.65
2022-09-01T07:14:25.423Z,16.78
2022-09-01T07:19:54.653Z,17.02
2022-09-01T07:23:02.859Z,17.43
2022-09-01T07:25:12.889Z,17.77
2022-09-01T07:28:09.954Z,17.48
2022-09-01T07:30:49.447Z,17.30
2022-09-01T07:36:26.816Z,17.04
2022-09-01T07:44:52.971Z,17.95
2022-09-01T07:47:54.214Z,17.98
2022-09-01T07:50:39.830Z,18.12
2022-09-01T07:53:09.252Z,18.16
2022-09-01T07:55:40.386Z,18.36
2022-09-01T07:58:07.115Z,18.10
2022-09-01T08:00:34.263Z,18.07
2022-09-01T08:03:06.147Z,18.24
2022-09-01T08:05:33.682Z,18.25
2022-09-01T08:08:01.207Z,18.28
2022-09-01T08:10:32.019Z,18.79
2022-09-01T08:12:58.745Z,18.81
2022-09-01T08:16:07.203Z,18.64
2022-09-01T08:18:14.747Z,19.12
2022-09-01T08:20:45.747Z,18.50
2022-09-01T08:23:37.681Z,18.77
2022-09-01T08:26:09.584Z,18.79
2022-09-01T08:28:36.655Z,18.90
2022-09-01T08:31:11.739Z,18.69
2022-09-01T08:33:41.030Z,18.57
2022-09-01T08:36:10.101Z,19.19
2022-09-01T08:38:37.116Z,19.21
2022-09-01T08:41:13.670Z,18.74
2022-09-01T08:43:55.434Z,18.65
2022-09-01T08:46:27.558Z,18.74
2022-09-01T08:52:18.038Z,18.40
2022-09-01T08:55:01.705Z,17.72
2022-09-01T08:57:43.094Z,17.66
2022-09-01T09:00:30.716Z,17.80
2022-09-01T09:03:20.960Z,17.86
2022-09-01T09:05:59.688Z,17.67
2022-09-01T09:09:01.334Z,17.32
2022-09-01T09:11:45.799Z,17.39
2022-09-01T09:14:27.765Z,17.87
2022-09-01T09:16:56.258Z,17.82
2022-09-01T09:19:29.686Z,17.89
2022-09-01T09:21:59.397Z,17.92
2022-09-01T09:24:56.422Z,18.07
2022-09-01T09:27:26.926Z,18.65
2022-09-01T09:30:04.221Z,18.67
2022-09-01T09:33:30.842Z,18.43
2022-09-01T09:35:47.208Z,18.71
2022-09-01T09:38:18.811Z,19.22
2022-09-01T09:44:11.289Z,19.31
2022-09-01T09:46:43.651Z,18.99
2022-09-01T09:49:13.266Z,19.11
2022-09-01T09:51:43.297Z,19.35
2022-09-01T09:54:20.801Z,19.71
2022-09-01T09:56:49.106Z,19.63
2022-09-01T09:59:54.071Z,19.85
2022-09-01T10:02:33.343Z,19.93
2022-09-01T10:05:40.020Z,19.99
2022-09-01T10:08:14.761Z,19.98
2022-09-01T10:10:58.057Z,19.98
2022-09-01T10:13:27.543Z,20.49
2022-09-01T10:15:58.161Z,20.42
2022-09-01T10:18:31.325Z,20.45
2022-09-01T10:21:04.217Z,20.72
2022-09-01T10:23:34.672Z,20.83
2022-09-01T10:26:26.308Z,20.68
2022-09-01T10:28:57.975Z,20.84
2022-09-01T10:31:29.555Z,20.79
2022-09-01T10:34:02.386Z,20.81
2022-09-01T10:36:30.740Z,20.95
2022-09-01T10:39:00.750Z,21.33
2022-09-01T10:41:43.943Z,21.33
2022-09-01T10:44:19.653Z,21.62
2022-09-01T10:46:50.445Z,21.18
2022-09-01T10:49:25.151Z,20.89
2022-09-01T10:51:56.931Z,21.13
2022-09-01T10:54:52.713Z,21.64
2022-09-01T10:57:55.844Z,22.01
2022-09-01T11:00:35.533Z,22.21
2022-09-01T11:03:31.965Z,22.17
2022-09-01T11:06:14.374Z,22.05
2022-09-01T11:08:50.736Z,21.83
2022-09-01T11:11:29.789Z,21.22
2022-09-01T11:13:59.036Z,21.40
2022-09-01T11:16:49.588Z,20.68
2022-09-01T11:19:35.293Z,20.78
2022-09-01T11:22:12.878Z,20.84
2022-09-01T11:24:39.534Z,20.12
2022-09-01T11:27:09.218Z,20.02
2022-09-01T11:30:06.859Z,20.01
2022-09-01T11:32:35.684Z,19.43
2022-09-01T11:35:05.578Z,19.25
2022-09-01T11:37:33.463Z,19.56
2022-09-01T11:40:08.536Z,19.26
2022-09-01T11:42:46.723Z,19.33
2022-09-01T11:45:21.662Z,19.82
2022-09-01T11:47:52.731Z,20.17
2022-09-01T11:50:23.797Z,19.88
2022-09-01T11:53:04.761Z,20.30
2022-09-01T11:55:44.166Z,20.17
2022-09-01T11:58:31.287Z,20.53
2022-09-01T12:01:34.168Z,20.82
2022-09-01T12:04:26.210Z,20.73
2022-09-01T12:07:13.106Z,21.31
2022-09-01T12:09:45.572Z,20.92
2022-09-01T12:12:38.166Z,21.24
2022-09-01T12:15:11.238Z,21.36
2022-09-01T12:17:40.425Z,21.17
2022-09-01T12:20:29.619Z,21.84
2022-09-01T12:22:57.992Z,22.44
2022-09-01T12:25:30.833Z,22.13
2022-09-01T12:28:00.830Z,22.40
2022-09-01T12:30:27.981Z,22.76
2022-09-01T12:33:22.838Z,22.28
2022-09-01T12:35:42.704Z,22.41
2022-09-01T12:38:21.267Z,22.11
2022-09-01T12:40:56.851Z,21.93
2022-09-01T12:43:39.559Z,22.14
2022-09-01T12:46:09.244Z,21.89
2022-09-01T12:48:41.729Z,21.91
2022-09-01T12:51:26.603Z,21.32
2022-09-01T12:54:00.653Z,21.37
2022-09-01T12:56:39.022Z,21.23
2022-09-01T12:59:17.243Z,21.50
2022-09-01T13:01:45.010Z,21.38
2022-09-01T13:04:24.629Z,20.96
2022-09-01T13:06:52.486Z,21.03
2022-09-01T13:09:19.274Z,21.10
2022-09-01T13:12:06.255Z,20.97
2022-09-01T13:14:33.545Z,21.02
2022-09-01T13:17:00.121Z,21.08
2022-09-01T13:19:30.099Z,20.83
2022-09-01T13:21:57.116Z,20.80
2022-09-01T13:24:28.097Z,20.90
2022-09-01T13:29:43.899Z,20.61
2022-09-01T13:32:19.276Z,20.64
2022-09-01T13:34:48.471Z,21.06
2022-09-01T13:37:17.271Z,21.02
2022-09-01T13:39:43.814Z,21.04
2022-09-01T13:42:10.435Z,20.75
2022-09-01T13:44:36.919Z,20.97
2022-09-01T13:50:08.866Z,20.88
2022-09-01T13:52:39.404Z,21.10
2022-09-01T13:55:07.187Z,21.23
2022-09-01T13:57:36.447Z,21.15
2022-09-01T14:00:06.544Z,21.09
2022-09-01T14:02:38.717Z,21.13
2022-09-01T14:05:05.527Z,21.31
2022-09-01T14:07:32.397Z,21.14
2022-09-01T14:09:59.247Z,20.97
2022-09-01T14:12:26.064Z,21.09
2022-09-01T14:17:39.455Z,21.04
2022-09-01T14:20:08.940Z,21.19
2022-09-01T14:22:38.551Z,21.47
2022-09-01T14:25:05.767Z,21.17
2022-09-01T14:27:32.279Z,21.04
2022-09-01T14:29:58.989Z,21.61
2022-09-01T14:32:26.753Z,21.50
2022-09-01T14:34:54.360Z,21.93
2022-09-01T14:37:21.354Z,22.32
2022-09-01T14:39:52.616Z,22.03
2022-09-01T14:42:19.808Z,22.12
2022-09-01T14:44:47.783Z,21.88
2022-09-01T14:47:19.728Z,22.21
2022-09-01T14:49:47.528Z,21.84
2022-09-01T14:52:14.285Z,22.12
2022-09-01T14:54:44.928Z,21.89
2022-09-01T14:57:29.611Z,21.61
2022-09-01T14:59:59.463Z,21.79
2022-09-01T15:02:28.968Z,21.53
2022-09-01T15:04:56.558Z,21.72
2022-09-01T15:07:23.100Z,21.47
2022-09-01T15:09:49.799Z,21.47
2022-09-01T15:12:16.934Z,21.35
2022-09-01T15:14:43.477Z,21.27
2022-09-01T15:17:10.592Z,21.48
2022-09-01T15:19:37.081Z,21.08
2022-09-01T15:22:04.325Z,21.21
2022-09-01T15:24:30.820Z,21.11
2022-09-01T15:26:57.301Z,20.99
2022-09-01T15:29:23.784Z,20.73
2022-09-01T15:31:50.327Z,20.74
2022-09-01T15:34:18.872Z,20.61
2022-09-01T15:36:45.488Z,20.56
2022-09-01T15:39:12.353Z,20.54
2022-09-01T15:41:39.185Z,21.21
2022-09-01T15:44:07.200Z,21.24
2022-09-01T15:46:36.130Z,20.95
2022-09-01T15:49:08.578Z,20.91
2022-09-01T15:51:41.011Z,20.84
2022-09-01T15:54:10.858Z,20.84
2022-09-01T15:56:37.367Z,20.75
2022-09-01T15:59:04.697Z,20.90
2022-09-01T16:01:37.622Z,20.86
2022-09-01T16:04:06.028Z,20.83
2022-09-01T16:06:33.577Z,20.68
2022-09-01T16:09:00.181Z,20.92
2022-09-01T16:11:26.780Z,20.84
2022-09-01T16:13:54.101Z,21.07
2022-09-01T16:16:45.769Z,20.94
2022-09-01T16:19:21.730Z,20.93
2022-09-01T16:21:54.406Z,20.80
2022-09-01T16:24:20.902Z,20.58
2022-09-01T16:26:48.315Z,20.43
2022-09-01T16:29:27.941Z,20.68
2022-09-01T16:31:56.481Z,20.27
2022-09-01T16:34:26.275Z,20.15
2022-09-01T16:37:04.900Z,20.09
2022-09-01T16:39:47.142Z,19.93
2022-09-01T16:42:40.914Z,19.97
2022-09-01T16:45:17.927Z,19.91
2022-09-01T16:48:07.338Z,19.83
2022-09-01T16:50:44.462Z,20.34
2022-09-01T16:53:31.239Z,19.91
2022-09-01T16:55:59.817Z,19.70
2022-09-01T16:59:00.253Z,19.64
2022-09-01T17:01:35.748Z,19.54
2022-09-01T17:04:28.020Z,19.59
2022-09-01T17:07:02.452Z,19.49
2022-09-01T17:09:39.084Z,19.46
2022-09-01T17:12:38.360Z,19.61
2022-09-01T17:15:12.781Z,19.32
2022-09-01T17:17:44.530Z,19.30
2022-09-01T17:20:13.003Z,18.92
2022-09-01T17:22:49.386Z,19.00
2022-09-01T17:25:27.091Z,18.89
2022-09-01T17:28:00.178Z,18.76
2022-09-01T17:30:27.142Z,18.57
2022-09-01T17:33:17.355Z,18.46
2022-09-01T17:36:16.009Z,18.36
2022-09-01T17:39:26.247Z,18.25
2022-09-01T17:41:58.633Z,18.02
2022-09-01T17:44:45.370Z,17.89
2022-09-01T17:47:23.194Z,17.76
2022-09-01T17:50:04.167Z,17.64
2022-09-01T17:52:52.358Z,17.53
2022-09-01T17:55:45.541Z,17.42
2022-09-01T17:58:59.671Z,17.18
2022-09-01T18:01:49.840Z,16.96
2022-09-01T18:04:38.410Z,16.76
2022-09-01T18:07:04.856Z,16.50
2022-09-01T18:09:40.050Z,16.42
2022-09-01T18:12:12.865Z,16.46
2022-09-01T18:14:47.278Z,16.35
2022-09-01T18:17:29.956Z,16.24
2022-09-01T18:20:05.365Z,16.13
2022-09-01T18:22:46.885Z,16.05
2022-09-01T18:25:24.965Z,16.10
2022-09-01T18:27:51.476Z,15.89
2022-09-01T18:30:36.374Z,15.96
2022-09-01T18:33:25.334Z,15.80
2022-09-01T18:36:20.224Z,15.77
2022-09-01T18:38:58.020Z,15.61
2022-09-01T18:41:36.712Z,15.65
2022-09-01T18:44:23.389Z,15.59
2022-09-01T18:47:07.683Z,15.47
2022-09-01T18:49:55.252Z,15.34
2022-09-01T18:52:40.827Z,15.21
2022-09-01T18:55:28.392Z,15.20
2022-09-01T18:57:57.575Z,15.16
2022-09-01T19:00:35.739Z,15.16
2022-09-01T19:03:18.254Z,15.05
2022-09-01T19:06:00.759Z,15.13
2022-09-01T19:08:40.204Z,15.03
2022-09-01T19:11:12.887Z,14.98
2022-09-01T19:13:54.179Z,14.92
2022-09-01T19:16:38.154Z,14.86
2022-09-01T19:19:44.086Z,14.84
2022-09-01T19:22:18.583Z,14.74
2022-09-01T19:25:20.568Z,14.69
2022-09-01T19:28:31.546Z,14.62
2022-09-01T19:31:08.333Z,14.54
2022-09-01T19:33:41.492Z,14.47
2022-09-01T19:36:17.458Z,14.28
2022-09-01T19:38:44.989Z,14.33
2022-09-01T19:41:23.540Z,14.29
2022-09-01T19:43:59.484Z,14.19
2022-09-01T19:46:48.171Z,14.15
2022-09-01T19:49:30.583Z,14.21
2022-09-01T19:52:07.882Z,14.09
2022-09-01T19:54:46.673Z,14.07
2022-09-01T19:57:19.144Z,14.00
2022-09-01T20:00:05.761Z,13.94
2022-09-01T20:02:44.417Z,13.85
2022-09-01T20:05:17.868Z,13.73
2022-09-01T20:07:53.051Z,13.85
2022-09-01T20:10:44.614Z,13.75
2022-09-01T20:13:35.824Z,13.77
2022-09-01T20:16:23.366Z,13.62
2022-09-01T20:18:55.595Z,13.65
2022-09-01T20:21:22.230Z,13.59
2022-09-01T20:23:48.608Z,13.63
2022-09-01T20:26:27.017Z,13.58
2022-09-01T20:29:07.992Z,13.61
2022-09-01T20:31:45.394Z,13.50
2022-09-01T20:34:25.166Z,13.36
2022-09-01T20:36:59.002Z,13.29
2022-09-01T20:40:04.124Z,13.33
2022-09-01T20:42:38.420Z,13.33
2022-09-01T20:45:17.218Z,13.29
2022-09-01T20:47:53.015Z,13.24
2022-09-01T20:50:23.117Z,13.10
2022-09-01T20:53:03.346Z,13.14
2022-09-01T20:55:36.868Z,13.02
2022-09-01T20:58:11.782Z,12.98
2022-09-01T21:01:00.058Z,12.97
2022-09-01T21:03:41.408Z,12.94
2022-09-01T21:06:41.965Z,12.77
2022-09-01T21:09:28.961Z,12.88
2022-09-01T21:12:21.460Z,12.79
2022-09-01T21:15:00.998Z,12.70
2022-09-01T21:17:39.365Z,12.79
2022-09-01T21:20:37.341Z,12.73
2022-09-01T21:23:03.884Z,12.65
2022-09-01T21:25:34.181Z,12.68
2022-09-01T21:28:04.325Z,12.59
2022-09-01T21:30:34.853Z,12.60
2022-09-01T21:33:02.941Z,12.63
2022-09-01T21:35:29.550Z,12.54
2022-09-01T21:37:56.002Z,12.63
2022-09-01T21:40:25.230Z,12.54
2022-09-01T21:42:56.537Z,12.45
2022-09-01T21:45:23.799Z,12.51
2022-09-01T21:47:52.044Z,12.41
2022-09-01T21:50:21.917Z,12.25
2022-09-01T21:52:48.434Z,12.34
2022-09-01T21:55:20.705Z,12.24
2022-09-01T21:57:49.189Z,12.22
2022-09-01T22:03:15.485Z,12.19
2022-09-01T22:05:42.396Z,12.18
2022-09-01T22:08:12.150Z,12.17
2022-09-01T22:10:49.432Z,12.12
2022-09-01T22:13:16.853Z,12.11
2022-09-01T22:15:47.980Z,12.11
2022-09-01T22:18:15.985Z,12.06
2022-09-01T22:20:43.253Z,12.07
2022-09-01T22:23:10.477Z,12.04
2022-09-01T22:25:42.787Z,12.03
2022-09-01T22:28:09.779Z,11.99
2022-09-01T22:30:36.688Z,11.96
2022-09-01T22:33:04.315Z,11.98
2022-09-01T22:35:30.864Z,12.00
2022-09-01T22:37:57.392Z,11.86
2022-09-01T22:40:23.955Z,11.87
2022-09-01T22:42:51.879Z,11.83
2022-09-01T22:45:18.705Z,11.82
2022-09-01T22:47:45.236Z,11.81
2022-09-01T22:50:12.078Z,11.81
2022-09-01T22:52:39.684Z,11.77
2022-09-01T22:55:08.958Z,11.68
2022-09-01T22:57:36.778Z,11.64
2022-09-01T23:00:09.772Z,11.66
2022-09-01T23:02:36.813Z,11.58
2022-09-01T23:05:06.038Z,11.65
2022-09-01T23:07:35.320Z,11.59
2022-09-01T23:10:06.616Z,11.57
2022-09-01T23:12:33.161Z,11.52
2022-09-01T23:14:59.709Z,11.51
2022-09-01T23:17:26.234Z,11.48
2022-09-01T23:19:52.770Z,11.40
2022-09-01T23:22:19.327Z,11.43
2022-09-01T23:24:45.909Z,11.41
2022-09-01T23:27:12.458Z,11.41
2022-09-01T23:29:39.050Z,11.35
2022-09-01T23:32:05.673Z,11.30
2022-09-01T23:34:32.303Z,11.21
2022-09-01T23:36:58.783Z,11.28
2022-09-01T23:39:25.340Z,11.27
2022-09-01T23:41:51.871Z,11.25
2022-09-01T23:44:18.435Z,11.20
2022-09-01T23:46:46.066Z,11.22
2022-09-01T23:49:15.003Z,11.19
2022-09-01T23:51:41.696Z,11.23
2022-09-01T23:54:08.319Z,11.14
2022-09-01T23:56:35.258Z,11.16
2022-09-01T23:59:02.130Z,11.15
